Time;durP1;ratioP1;P1;durP2;ratioP2;P2;SDS_P1;SDS_P2;PMS_P1;PMS_P2;Temp;Humidity;BMP_temperature;BMP_pressure;BME280_temperature;BME280_humidity;BME280_pressure;Samples;Min_cycle;Max_cycle;Signal;HPM_P1;HPM_P2
2023/06/01 00:00:15;;;;;;;;;;;14.10;99.90;;;;;;5131907;28;20328;-46
2023/06/01 00:02:41;;;;;;;;;;;14.10;99.90;;;;;;5131537;28;20393;-45
2023/06/01 00:05:06;;;;;;;;;;;14.10;99.90;;;;;;5129938;28;20009;-44
2023/06/01 00:07:32;;;;;;;;;;;14.10;99.90;;;;;;5126594;28;20057;-45
2023/06/01 00:09:58;;;;;;;;;;;14.10;99.90;;;;;;5132307;28;19992;-44
2023/06/01 00:12:24;;;;;;;;;;;14.10;99.90;;;;;;5130933;28;20394;-43
2023/06/01 00:14:49;;;;;;;;;;;14.10;99.90;;;;;;5130006;28;20272;-44
2023/06/01 00:17:16;;;;;;;;;;;14.00;99.90;;;;;;5132684;27;20010;-48
2023/06/01 00:19:44;;;;;;;;;;;14.00;99.90;;;;;;5135701;27;19930;-43
2023/06/01 00:22:10;;;;;;;;;;;14.00;99.90;;;;;;5133447;27;19911;-44
2023/06/01 00:24:36;;;;;;;;;;;14.00;99.90;;;;;;5134687;27;19914;-43
2023/06/01 00:27:01;;;;;;;;;;;14.00;99.90;;;;;;5135655;27;19917;-45
2023/06/01 00:29:27;;;;;;;;;;;14.00;99.90;;;;;;5135085;27;19908;-45
2023/06/01 00:31:52;;;;;;;;;;;14.00;99.90;;;;;;5134216;27;20007;-43
2023/06/01 00:34:18;;;;;;;;;;;14.00;99.90;;;;;;5135837;27;19911;-43
2023/06/01 00:36:43;;;;;;;;;;;13.90;99.90;;;;;;5124989;27;19973;-44
2023/06/01 00:39:09;;;;;;;;;;;14.00;99.90;;;;;;5115228;28;20285;-48
2023/06/01 00:41:34;;;;;;;;;;;13.90;99.90;;;;;;5115387;27;19923;-45
2023/06/01 00:44:00;;;;;;;;;;;13.90;99.90;;;;;;5114010;28;19908;-44
2023/06/01 00:46:26;;;;;;;;;;;13.90;99.90;;;;;;5114972;28;19908;-43
2023/06/01 00:48:51;;;;;;;;;;;13.90;99.90;;;;;;5114522;28;19912;-45
2023/06/01 00:51:17;;;;;;;;;;;13.90;99.90;;;;;;5121728;27;19911;-44
2023/06/01 00:53:43;;;;;;;;;;;13.90;99.90;;;;;;5134170;27;19919;-45
2023/06/01 00:56:11;;;;;;;;;;;13.80;99.90;;;;;;5135397;27;20273;-44
2023/06/01 00:58:37;;;;;;;;;;;13.90;99.90;;;;;;5122434;27;20002;-46
2023/06/01 01:01:03;;;;;;;;;;;13.80;99.90;;;;;;5120107;27;20301;-42
2023/06/01 01:03:31;;;;;;;;;;;13.80;99.90;;;;;;5135149;27;19907;-44
2023/06/01 01:06:14;;;;;;;;;;;13.70;99.90;;;;;;5133214;27;20057;-45
2023/06/01 01:08:43;;;;;;;;;;;13.70;99.90;;;;;;5125088;27;19973;-44
2023/06/01 01:11:14;;;;;;;;;;;13.70;99.90;;;;;;5133727;27;20289;-43
2023/06/01 01:13:50;;;;;;;;;;;13.70;99.90;;;;;;5134608;27;19968;-45
2023/06/01 01:16:35;;;;;;;;;;;13.70;99.90;;;;;;5116286;27;19981;-43
2023/06/01 01:19:12;;;;;;;;;;;13.70;99.90;;;;;;5126094;27;19911;-44
2023/06/01 01:21:42;;;;;;;;;;;13.70;99.90;;;;;;5132504;27;19957;-43
2023/06/01 01:24:23;;;;;;;;;;;13.60;99.90;;;;;;5133712;27;19911;-44
2023/06/01 01:26:57;;;;;;;;;;;13.60;99.90;;;;;;5113262;27;19919;-43
2023/06/01 01:29:23;;;;;;;;;;;13.60;99.90;;;;;;5113103;28;19908;-43
2023/06/01 01:31:49;;;;;;;;;;;13.60;99.90;;;;;;5115207;27;19950;-43
2023/06/01 01:34:17;;;;;;;;;;;13.60;99.90;;;;;;5113311;28;19915;-44
2023/06/01 01:36:43;;;;;;;;;;;13.60;99.90;;;;;;5113261;27;20382;-50
2023/06/01 01:39:08;;;;;;;;;;;13.60;99.90;;;;;;5132809;27;19911;-45
2023/06/01 01:41:34;;;;;;;;;;;13.60;99.90;;;;;;5128703;27;20002;-42
2023/06/01 01:43:59;;;;;;;;;;;13.60;99.90;;;;;;5132543;27;19911;-42
2023/06/01 01:46:26;;;;;;;;;;;13.60;99.90;;;;;;5133389;27;19911;-47
2023/06/01 01:49:01;;;;;;;;;;;13.50;99.90;;;;;;5130861;27;20316;-44
2023/06/01 01:51:32;;;;;;;;;;;13.50;99.90;;;;;;5132923;27;19915;-46
2023/06/01 01:53:59;;;;;;;;;;;13.50;99.90;;;;;;5132049;27;19919;-44
2023/06/01 01:56:26;;;;;;;;;;;13.50;99.90;;;;;;5134014;27;19911;-43
2023/06/01 01:58:51;;;;;;;;;;;13.50;99.90;;;;;;5133803;27;19912;-42
2023/06/01 02:01:18;;;;;;;;;;;13.50;99.90;;;;;;5132441;27;20338;-45
2023/06/01 02:03:43;;;;;;;;;;;13.50;99.90;;;;;;5133504;27;19918;-44
2023/06/01 02:06:09;;;;;;;;;;;13.60;99.90;;;;;;5124503;27;19908;-48
2023/06/01 02:08:34;;;;;;;;;;;13.50;99.90;;;;;;5123040;27;19933;-43
2023/06/01 02:10:59;;;;;;;;;;;13.50;99.90;;;;;;5133075;27;19911;-42
2023/06/01 02:13:25;;;;;;;;;;;13.40;99.90;;;;;;5133804;27;20389;-42
2023/06/01 02:15:50;;;;;;;;;;;13.40;99.90;;;;;;5132743;27;19911;-42
2023/06/01 02:18:17;;;;;;;;;;;13.40;99.90;;;;;;5133941;27;19907;-45
2023/06/01 02:20:44;;;;;;;;;;;13.40;99.90;;;;;;5132061;27;19964;-42
2023/06/01 02:23:09;;;;;;;;;;;13.40;99.90;;;;;;5128229;27;19958;-43
2023/06/01 02:25:35;;;;;;;;;;;13.40;99.90;;;;;;5127017;27;19958;-47
2023/06/01 02:28:01;;;;;;;;;;;13.30;99.90;;;;;;5132424;27;20445;-46
2023/06/01 02:30:27;;;;;;;;;;;13.30;99.90;;;;;;5131805;27;19911;-47
2023/06/01 02:32:52;;;;;;;;;;;13.40;99.90;;;;;;5116602;27;19930;-44
2023/06/01 02:35:18;;;;;;;;;;;13.30;99.90;;;;;;5112844;27;19945;-44
2023/06/01 02:37:43;;;;;;;;;;;13.30;99.90;;;;;;5131447;27;19971;-45
2023/06/01 02:40:11;;;;;;;;;;;13.30;99.90;;;;;;5121175;27;19912;-46
2023/06/01 02:42:38;;;;;;;;;;;13.30;99.90;;;;;;5131971;27;20482;-43
2023/06/01 02:45:04;;;;;;;;;;;13.30;99.90;;;;;;5133471;27;19964;-41
2023/06/01 02:47:30;;;;;;;;;;;13.30;99.90;;;;;;5133567;27;19907;-42
2023/06/01 02:49:55;;;;;;;;;;;13.30;99.90;;;;;;5130938;27;19911;-42
2023/06/01 02:52:20;;;;;;;;;;;13.30;99.90;;;;;;5132156;27;19919;-42
2023/06/01 02:54:46;;;;;;;;;;;13.30;99.90;;;;;;5130627;27;20423;-43
2023/06/01 02:57:11;;;;;;;;;;;13.30;99.90;;;;;;5123612;27;19912;-43
2023/06/01 02:59:37;;;;;;;;;;;13.30;99.90;;;;;;5124340;27;19907;-43
2023/06/01 03:02:02;;;;;;;;;;;13.30;99.90;;;;;;5133063;27;19923;-43
2023/06/01 03:04:28;;;;;;;;;;;13.20;99.90;;;;;;5132183;27;19908;-43
2023/06/01 03:06:54;;;;;;;;;;;13.20;99.90;;;;;;5131827;27;20006;-44
2023/06/01 03:09:19;;;;;;;;;;;13.20;99.90;;;;;;5131950;27;20353;-41
2023/06/01 03:11:45;;;;;;;;;;;13.20;99.90;;;;;;5131816;27;19990;-43
2023/06/01 03:14:10;;;;;;;;;;;13.20;99.90;;;;;;5132011;28;20270;-43
2023/06/01 03:16:36;;;;;;;;;;;13.20;99.90;;;;;;5132034;28;19914;-43
2023/06/01 03:19:01;;;;;;;;;;;13.20;99.90;;;;;;5131944;28;20358;-44
2023/06/01 03:21:27;;;;;;;;;;;13.20;99.90;;;;;;5131981;28;19907;-44
2023/06/01 03:23:52;;;;;;;;;;;13.20;99.90;;;;;;5131255;28;19919;-43
2023/06/01 03:26:20;;;;;;;;;;;13.20;99.90;;;;;;5130048;28;20251;-44
2023/06/01 03:28:46;;;;;;;;;;;13.20;99.90;;;;;;5132491;28;19915;-44
2023/06/01 03:31:12;;;;;;;;;;;13.20;99.90;;;;;;5124195;28;19968;-44
2023/06/01 03:33:38;;;;;;;;;;;13.20;99.90;;;;;;5110938;28;19916;-43
2023/06/01 03:36:04;;;;;;;;;;;13.20;99.90;;;;;;5110759;28;19915;-41
2023/06/01 03:38:30;;;;;;;;;;;13.20;99.90;;;;;;5130481;28;19912;-48
2023/06/01 03:40:55;;;;;;;;;;;13.20;99.90;;;;;;5130307;28;19915;-42
2023/06/01 03:43:21;;;;;;;;;;;13.20;99.90;;;;;;5132625;28;19907;-45
2023/06/01 03:45:46;;;;;;;;;;;13.20;99.90;;;;;;5130483;28;20275;-43
2023/06/01 03:48:12;;;;;;;;;;;13.20;99.90;;;;;;5125943;28;19947;-44
2023/06/01 03:50:39;;;;;;;;;;;13.20;99.90;;;;;;5110947;28;20376;-47
2023/06/01 03:53:05;;;;;;;;;;;13.20;99.90;;;;;;5131396;27;20010;-43
2023/06/01 03:55:30;;;;;;;;;;;13.20;99.90;;;;;;5135267;27;19915;-42
2023/06/01 03:57:56;;;;;;;;;;;13.20;99.90;;;;;;5135533;27;19908;-45
2023/06/01 04:00:23;;;;;;;;;;;13.10;99.90;;;;;;5134615;27;19912;-44
2023/06/01 04:02:49;;;;;;;;;;;13.10;99.90;;;;;;5136025;27;19907;-44
2023/06/01 04:05:16;;;;;;;;;;;13.10;99.90;;;;;;5127146;27;19915;-44
2023/06/01 04:07:43;;;;;;;;;;;13.10;99.90;;;;;;5115617;27;19912;-42
2023/06/01 04:10:11;;;;;;;;;;;13.10;99.90;;;;;;5130321;27;19915;-47
2023/06/01 04:12:36;;;;;;;;;;;13.20;99.90;;;;;;5131424;27;19923;-45
2023/06/01 04:15:02;;;;;;;;;;;13.20;99.90;;;;;;5117002;27;20037;-43
2023/06/01 04:17:28;;;;;;;;;;;13.20;99.90;;;;;;5136105;27;19960;-42
2023/06/01 04:19:53;;;;;;;;;;;13.20;99.90;;;;;;5134785;27;20269;-42
2023/06/01 04:22:19;;;;;;;;;;;13.10;99.90;;;;;;5132798;27;19911;-43
2023/06/01 04:24:44;;;;;;;;;;;13.20;99.90;;;;;;5134591;27;19931;-44
2023/06/01 04:27:10;;;;;;;;;;;13.20;99.90;;;;;;5134271;27;19911;-44
2023/06/01 04:29:39;;;;;;;;;;;13.20;99.90;;;;;;5134149;27;19915;-44
2023/06/01 04:32:05;;;;;;;;;;;13.20;99.90;;;;;;5128233;27;20007;-45
2023/06/01 04:34:30;;;;;;;;;;;13.20;99.90;;;;;;5135893;27;20006;-44
2023/06/01 04:36:56;;;;;;;;;;;13.20;99.90;;;;;;5133596;27;20401;-43
2023/06/01 04:39:21;;;;;;;;;;;13.20;99.90;;;;;;5125828;27;19911;-44
2023/06/01 04:41:48;;;;;;;;;;;13.20;99.90;;;;;;5131699;27;20258;-50
2023/06/01 04:44:15;;;;;;;;;;;13.20;99.90;;;;;;5135766;27;19963;-44
2023/06/01 04:46:40;;;;;;;;;;;13.20;99.90;;;;;;5135202;27;19911;-43
2023/06/01 04:49:06;;;;;;;;;;;13.20;99.90;;;;;;5134012;27;20429;-44
2023/06/01 04:51:32;;;;;;;;;;;13.20;99.90;;;;;;5135230;27;20366;-55
2023/06/01 04:53:59;;;;;;;;;;;13.20;99.90;;;;;;5134302;27;19960;-45
2023/06/01 04:56:26;;;;;;;;;;;13.20;99.90;;;;;;5132006;27;19915;-42
2023/06/01 04:58:52;;;;;;;;;;;13.20;99.90;;;;;;5133918;27;20350;-43
2023/06/01 05:01:18;;;;;;;;;;;13.20;99.90;;;;;;5135185;27;20006;-44
2023/06/01 05:03:45;;;;;;;;;;;13.20;99.90;;;;;;5132213;27;20002;-43
2023/06/01 05:06:11;;;;;;;;;;;13.20;99.90;;;;;;5135322;27;19911;-43
2023/06/01 05:08:37;;;;;;;;;;;13.20;99.90;;;;;;5128042;27;19908;-43
2023/06/01 05:11:03;;;;;;;;;;;13.20;99.90;;;;;;5128411;27;19915;-43
2023/06/01 05:13:28;;;;;;;;;;;13.20;99.90;;;;;;5134078;27;20270;-44
2023/06/01 05:15:54;;;;;;;;;;;13.20;99.90;;;;;;5134642;27;19915;-43
2023/06/01 05:18:19;;;;;;;;;;;13.20;99.90;;;;;;5133004;27;20289;-45
2023/06/01 05:20:45;;;;;;;;;;;13.20;99.90;;;;;;5113887;27;19977;-43
2023/06/01 05:23:11;;;;;;;;;;;13.20;99.90;;;;;;5122432;27;19990;-47
2023/06/01 05:25:36;;;;;;;;;;;13.20;99.90;;;;;;5131786;27;19920;-43
2023/06/01 05:28:02;;;;;;;;;;;13.20;99.90;;;;;;5122647;27;20020;-42
2023/06/01 05:30:27;;;;;;;;;;;13.30;99.90;;;;;;5123277;27;19912;-42
2023/06/01 05:32:52;;;;;;;;;;;13.30;99.90;;;;;;5112973;28;19915;-43
2023/06/01 05:35:18;;;;;;;;;;;13.30;99.90;;;;;;5114139;28;19907;-43
2023/06/01 05:37:43;;;;;;;;;;;13.30;99.90;;;;;;5115494;27;19927;-42
2023/06/01 05:40:09;;;;;;;;;;;13.30;99.90;;;;;;5133740;27;19911;-42
2023/06/01 05:42:35;;;;;;;;;;;13.30;99.90;;;;;;5132117;27;20376;-42
2023/06/01 05:45:01;;;;;;;;;;;13.30;99.90;;;;;;5134335;27;19951;-43
2023/06/01 05:47:26;;;;;;;;;;;13.30;99.90;;;;;;5122745;27;20393;-45
2023/06/01 05:49:51;;;;;;;;;;;13.30;99.90;;;;;;5134034;27;19915;-43
2023/06/01 05:52:17;;;;;;;;;;;13.30;99.90;;;;;;5133414;27;19907;-43
2023/06/01 05:54:42;;;;;;;;;;;13.30;99.90;;;;;;5132825;27;19916;-45
2023/06/01 05:57:08;;;;;;;;;;;13.30;99.90;;;;;;5132352;27;19954;-43
2023/06/01 05:59:33;;;;;;;;;;;13.30;99.90;;;;;;5128899;27;19908;-48
2023/06/01 06:01:59;;;;;;;;;;;13.40;99.90;;;;;;5122953;27;19959;-43
2023/06/01 06:04:25;;;;;;;;;;;13.30;99.90;;;;;;5127412;27;19912;-45
2023/06/01 06:06:50;;;;;;;;;;;13.30;99.90;;;;;;5124812;27;19949;-43
2023/06/01 06:09:16;;;;;;;;;;;13.30;99.90;;;;;;5117908;27;19915;-44
2023/06/01 06:11:41;;;;;;;;;;;13.30;99.90;;;;;;5122780;27;19977;-44
2023/06/01 06:14:07;;;;;;;;;;;13.40;99.90;;;;;;5129876;27;19916;-44
2023/06/01 06:16:32;;;;;;;;;;;13.30;99.90;;;;;;5132023;27;19915;-44
2023/06/01 06:18:58;;;;;;;;;;;13.30;99.90;;;;;;5133795;27;19908;-43
2023/06/01 06:21:23;;;;;;;;;;;13.40;99.90;;;;;;5130584;27;19907;-44
2023/06/01 06:23:49;;;;;;;;;;;13.40;99.90;;;;;;5126812;27;20373;-44
2023/06/01 06:26:14;;;;;;;;;;;13.50;99.90;;;;;;5132001;27;19911;-43
2023/06/01 06:28:40;;;;;;;;;;;13.50;99.90;;;;;;5132405;27;20016;-43
2023/06/01 06:31:05;;;;;;;;;;;13.50;99.90;;;;;;5132026;27;19915;-41
2023/06/01 06:33:31;;;;;;;;;;;13.50;99.90;;;;;;5132309;27;20148;-43
2023/06/01 06:35:56;;;;;;;;;;;13.60;99.90;;;;;;5132468;27;19907;-44
2023/06/01 06:38:22;;;;;;;;;;;13.60;99.90;;;;;;5117429;27;20346;-41
2023/06/01 06:40:48;;;;;;;;;;;13.60;99.90;;;;;;5130950;27;19915;-41
2023/06/01 06:43:14;;;;;;;;;;;13.60;99.90;;;;;;5130585;27;19912;-47
2023/06/01 06:45:40;;;;;;;;;;;13.70;99.90;;;;;;5125969;27;20251;-43
2023/06/01 06:48:06;;;;;;;;;;;13.70;99.90;;;;;;5126789;27;20374;-44
2023/06/01 06:50:32;;;;;;;;;;;13.70;99.90;;;;;;5117946;27;19922;-46
2023/06/01 06:52:59;;;;;;;;;;;13.70;99.90;;;;;;5126157;27;20381;-44
2023/06/01 06:55:24;;;;;;;;;;;13.80;99.90;;;;;;5127837;27;19919;-42
2023/06/01 06:57:50;;;;;;;;;;;13.80;99.90;;;;;;5126351;27;20289;-43
2023/06/01 07:00:15;;;;;;;;;;;13.80;99.90;;;;;;5127945;27;20044;-44
2023/06/01 07:02:44;;;;;;;;;;;13.80;99.90;;;;;;5115112;27;19919;-43
2023/06/01 07:05:10;;;;;;;;;;;13.80;99.90;;;;;;5119077;27;19912;-44
2023/06/01 07:07:36;;;;;;;;;;;13.90;99.90;;;;;;5118911;27;19923;-44
2023/06/01 07:10:02;;;;;;;;;;;13.80;99.90;;;;;;5112628;27;19922;-47
2023/06/01 07:12:27;;;;;;;;;;;13.80;99.90;;;;;;5125648;27;19983;-45
2023/06/01 07:14:53;;;;;;;;;;;13.80;99.90;;;;;;5120012;27;19918;-44
2023/06/01 07:17:18;;;;;;;;;;;13.80;99.90;;;;;;5123750;28;19983;-43
2023/06/01 07:19:43;;;;;;;;;;;13.90;99.90;;;;;;5129180;28;19918;-46
2023/06/01 07:22:09;;;;;;;;;;;13.90;99.90;;;;;;5130290;28;19968;-44
2023/06/01 07:24:35;;;;;;;;;;;14.00;99.90;;;;;;5130376;28;19955;-44
2023/06/01 07:27:00;;;;;;;;;;;14.10;99.90;;;;;;5128807;27;19916;-42
2023/06/01 07:29:26;;;;;;;;;;;14.10;99.90;;;;;;5136364;27;20353;-42
2023/06/01 07:31:52;;;;;;;;;;;14.20;99.90;;;;;;5124252;27;19923;-43
2023/06/01 07:34:18;;;;;;;;;;;14.30;99.90;;;;;;5127532;27;19953;-44
2023/06/01 07:36:45;;;;;;;;;;;14.20;99.90;;;;;;5119950;27;19919;-43
2023/06/01 07:39:11;;;;;;;;;;;14.20;99.90;;;;;;5123885;27;19912;-44
2023/06/01 07:41:36;;;;;;;;;;;14.20;99.90;;;;;;5134484;27;20032;-44
2023/06/01 07:44:02;;;;;;;;;;;14.20;99.90;;;;;;5136758;27;20366;-42
2023/06/01 07:46:28;;;;;;;;;;;14.20;99.90;;;;;;5130506;27;19911;-43
2023/06/01 07:48:53;;;;;;;;;;;14.20;99.90;;;;;;5133309;27;19919;-45
2023/06/01 07:51:19;;;;;;;;;;;14.20;99.90;;;;;;5134302;27;20325;-43
2023/06/01 07:53:44;;;;;;;;;;;14.20;99.90;;;;;;5132646;27;20153;-43
2023/06/01 07:56:10;;;;;;;;;;;14.20;99.90;;;;;;5127802;27;19916;-41
2023/06/01 07:58:36;;;;;;;;;;;14.20;99.90;;;;;;5126023;27;19979;-42
2023/06/01 08:01:02;;;;;;;;;;;14.20;99.90;;;;;;5133691;27;19919;-45
2023/06/01 08:03:28;;;;;;;;;;;14.30;99.90;;;;;;5133428;27;19911;-42
2023/06/01 08:05:59;;;;;;;;;;;14.40;99.90;;;;;;5129396;27;19988;-42
2023/06/01 08:08:24;;;;;;;;;;;14.60;99.90;;;;;;5124646;27;19911;-43
2023/06/01 08:10:50;;;;;;;;;;;14.70;99.90;;;;;;5127432;27;20319;-43
2023/06/01 08:13:15;;;;;;;;;;;14.80;99.90;;;;;;5134271;27;19916;-43
2023/06/01 08:15:42;;;;;;;;;;;14.80;99.90;;;;;;5130055;27;20374;-44
2023/06/01 08:18:08;;;;;;;;;;;14.80;99.90;;;;;;5121463;27;20296;-43
2023/06/01 08:20:35;;;;;;;;;;;14.80;99.90;;;;;;5124036;27;19939;-43
2023/06/01 08:23:01;;;;;;;;;;;14.80;99.90;;;;;;5130532;27;20323;-44
2023/06/01 08:25:27;;;;;;;;;;;14.80;99.90;;;;;;5123662;27;19934;-43
2023/06/01 08:27:52;;;;;;;;;;;14.80;99.90;;;;;;5132268;27;20374;-44
2023/06/01 08:30:18;;;;;;;;;;;14.80;99.90;;;;;;5135776;27;19960;-43
2023/06/01 08:32:43;;;;;;;;;;;14.80;99.90;;;;;;5132280;27;19924;-42
2023/06/01 08:35:09;;;;;;;;;;;14.70;99.90;;;;;;5117288;27;19981;-42
2023/06/01 08:37:35;;;;;;;;;;;14.60;99.90;;;;;;5126969;27;19923;-42
2023/06/01 08:40:00;;;;;;;;;;;14.60;99.90;;;;;;5125626;27;19957;-45
2023/06/01 08:42:31;;;;;;;;;;;14.70;99.90;;;;;;5130394;27;19915;-42
2023/06/01 08:44:57;;;;;;;;;;;14.60;99.90;;;;;;5133250;27;19958;-43
2023/06/01 08:47:26;;;;;;;;;;;14.60;99.90;;;;;;5126763;27;20289;-42
2023/06/01 08:49:52;;;;;;;;;;;14.60;99.90;;;;;;5122931;27;19923;-43
2023/06/01 08:52:21;;;;;;;;;;;14.50;99.90;;;;;;5116884;27;19912;-44
2023/06/01 08:54:47;;;;;;;;;;;14.50;99.90;;;;;;5128514;27;19911;-42
2023/06/01 08:57:13;;;;;;;;;;;14.50;99.90;;;;;;5130876;27;19956;-44
2023/06/01 08:59:39;;;;;;;;;;;14.50;99.90;;;;;;5135146;27;19919;-43
2023/06/01 09:02:05;;;;;;;;;;;14.40;99.90;;;;;;5129953;27;19916;-42
2023/06/01 09:04:33;;;;;;;;;;;14.40;99.90;;;;;;5135167;27;19915;-45
2023/06/01 09:06:58;;;;;;;;;;;14.40;99.90;;;;;;5135066;27;19915;-43
2023/06/01 09:09:24;;;;;;;;;;;14.40;99.90;;;;;;5130336;27;19919;-43
2023/06/01 09:12:09;;;;;;;;;;;14.40;99.90;;;;;;5122406;27;19919;-46
2023/06/01 09:14:35;;;;;;;;;;;14.40;99.90;;;;;;5113939;28;20302;-45
2023/06/01 09:17:00;;;;;;;;;;;14.50;99.90;;;;;;5129246;27;19918;-44
2023/06/01 09:19:40;;;;;;;;;;;14.50;99.90;;;;;;5130591;27;19968;-42
2023/06/01 09:22:06;;;;;;;;;;;14.50;99.90;;;;;;5133857;27;20423;-43
2023/06/01 09:24:31;;;;;;;;;;;14.60;99.90;;;;;;5131420;27;19919;-46
2023/06/01 09:27:00;;;;;;;;;;;14.70;99.90;;;;;;5128123;27;19959;-45
2023/06/01 09:29:26;;;;;;;;;;;14.80;99.90;;;;;;5118263;27;20367;-42
2023/06/01 09:31:51;;;;;;;;;;;14.80;99.90;;;;;;5117111;27;19964;-42
2023/06/01 09:34:20;;;;;;;;;;;14.90;99.90;;;;;;5120746;27;19931;-43
2023/06/01 09:36:46;;;;;;;;;;;14.90;99.90;;;;;;5125949;27;19923;-44
2023/06/01 09:39:13;;;;;;;;;;;14.90;99.90;;;;;;5131842;27;20152;-46
2023/06/01 09:41:58;;;;;;;;;;;14.90;99.90;;;;;;5129162;27;20404;-49
2023/06/01 09:44:28;;;;;;;;;;;14.90;99.90;;;;;;5128004;27;20393;-45
2023/06/01 09:46:55;;;;;;;;;;;14.80;99.90;;;;;;5129833;27;19915;-42
2023/06/01 09:49:30;;;;;;;;;;;14.80;99.90;;;;;;5116430;27;19965;-43
2023/06/01 09:52:05;;;;;;;;;;;14.80;99.90;;;;;;5110775;28;19919;-43
2023/06/01 09:54:31;;;;;;;;;;;14.90;99.90;;;;;;5122489;27;19915;-42
2023/06/01 09:56:58;;;;;;;;;;;14.90;99.90;;;;;;5133203;27;19934;-46
2023/06/01 09:59:25;;;;;;;;;;;14.90;99.90;;;;;;5134234;27;20376;-42
2023/06/01 10:01:52;;;;;;;;;;;15.00;99.90;;;;;;5124421;27;19911;-42
2023/06/01 10:04:22;;;;;;;;;;;15.10;99.90;;;;;;5126288;27;19912;-42
2023/06/01 10:06:51;;;;;;;;;;;15.10;99.90;;;;;;5132120;27;19908;-46
2023/06/01 10:09:19;;;;;;;;;;;15.20;99.90;;;;;;5127996;27;20389;-43
2023/06/01 10:11:44;;;;;;;;;;;15.10;99.90;;;;;;5129495;27;19915;-44
2023/06/01 10:14:10;;;;;;;;;;;15.20;99.90;;;;;;5133947;27;20358;-43
2023/06/01 10:16:35;;;;;;;;;;;15.10;99.90;;;;;;5131897;27;19915;-44
2023/06/01 10:19:01;;;;;;;;;;;15.10;99.90;;;;;;5127164;27;20286;-45
2023/06/01 10:21:28;;;;;;;;;;;15.10;99.90;;;;;;5133745;27;19908;-42
2023/06/01 10:23:54;;;;;;;;;;;15.10;99.90;;;;;;5131740;27;19912;-43
2023/06/01 10:26:20;;;;;;;;;;;15.10;99.90;;;;;;5131388;27;19912;-42
2023/06/01 10:28:46;;;;;;;;;;;15.10;99.90;;;;;;5131232;27;20361;-42
2023/06/01 10:31:30;;;;;;;;;;;15.00;99.90;;;;;;5127748;27;19912;-44
2023/06/01 10:33:57;;;;;;;;;;;15.00;99.90;;;;;;5123828;27;19927;-43
2023/06/01 10:36:23;;;;;;;;;;;15.00;99.90;;;;;;5117965;27;20321;-43
2023/06/01 10:38:48;;;;;;;;;;;15.00;99.90;;;;;;5125382;27;20370;-44
2023/06/01 10:41:30;;;;;;;;;;;15.00;99.90;;;;;;5116266;27;19919;-43
2023/06/01 10:43:56;;;;;;;;;;;15.00;99.90;;;;;;5134318;27;19907;-43
2023/06/01 10:46:37;;;;;;;;;;;15.10;99.90;;;;;;5134219;27;20259;-44
2023/06/01 10:49:04;;;;;;;;;;;15.10;99.90;;;;;;5133398;27;19937;-42
2023/06/01 10:51:30;;;;;;;;;;;15.10;99.90;;;;;;5133880;27;19986;-44
2023/06/01 10:54:15;;;;;;;;;;;15.10;99.90;;;;;;5134052;27;19922;-43
2023/06/01 10:56:41;;;;;;;;;;;15.20;99.90;;;;;;5132830;27;19915;-42
2023/06/01 10:59:09;;;;;;;;;;;15.30;99.90;;;;;;5133962;27;19911;-42
2023/06/01 11:01:39;;;;;;;;;;;15.50;99.90;;;;;;5133509;27;20343;-45
2023/06/01 11:04:05;;;;;;;;;;;15.50;99.90;;;;;;5133917;27;19908;-44
2023/06/01 11:06:33;;;;;;;;;;;15.50;99.90;;;;;;5133742;27;19908;-43
2023/06/01 11:09:05;;;;;;;;;;;15.60;99.90;;;;;;5133151;27;19946;-43
2023/06/01 11:11:52;;;;;;;;;;;15.60;99.90;;;;;;5133761;27;19907;-43
2023/06/01 11:14:18;;;;;;;;;;;15.60;99.90;;;;;;5133642;27;19920;-45
2023/06/01 11:16:44;;;;;;;;;;;15.70;99.90;;;;;;5133067;27;20035;-43
2023/06/01 11:19:10;;;;;;;;;;;15.80;99.90;;;;;;5133869;28;19939;-43
2023/06/01 11:21:45;;;;;;;;;;;15.80;99.90;;;;;;5133717;28;19988;-43
2023/06/01 11:24:12;;;;;;;;;;;15.80;99.90;;;;;;5132812;28;19932;-44
2023/06/01 11:26:47;;;;;;;;;;;15.80;99.90;;;;;;5133369;28;20005;-42
2023/06/01 11:29:13;;;;;;;;;;;15.90;99.90;;;;;;5133633;28;20361;-45
2023/06/01 11:31:40;;;;;;;;;;;15.90;99.90;;;;;;5132781;28;19918;-45
2023/06/01 11:34:06;;;;;;;;;;;16.00;99.90;;;;;;5133514;28;19915;-44
2023/06/01 11:36:36;;;;;;;;;;;16.00;99.90;;;;;;5133333;28;19931;-46
2023/06/01 11:39:02;;;;;;;;;;;16.10;99.90;;;;;;5132797;28;20288;-43
2023/06/01 11:41:27;;;;;;;;;;;16.20;99.90;;;;;;5133449;28;19907;-44
2023/06/01 11:43:53;;;;;;;;;;;16.20;99.90;;;;;;5132651;28;19907;-46
2023/06/01 11:46:20;;;;;;;;;;;16.30;99.90;;;;;;5133463;28;19965;-43
2023/06/01 11:48:58;;;;;;;;;;;16.30;99.90;;;;;;5133453;28;19911;-42
2023/06/01 11:51:23;;;;;;;;;;;16.30;99.90;;;;;;5132632;28;19955;-42
2023/06/01 11:53:50;;;;;;;;;;;16.30;99.90;;;;;;5133197;28;19954;-42
2023/06/01 11:56:16;;;;;;;;;;;16.40;99.90;;;;;;5133442;28;19914;-44
2023/06/01 11:58:41;;;;;;;;;;;16.40;99.90;;;;;;5132640;28;19907;-43
2023/06/01 12:01:07;;;;;;;;;;;16.40;99.90;;;;;;5133361;28;19908;-42
2023/06/01 12:03:32;;;;;;;;;;;16.40;99.90;;;;;;5133229;28;20013;-42
2023/06/01 12:05:58;;;;;;;;;;;16.50;99.90;;;;;;5132606;28;19908;-44
2023/06/01 12:08:24;;;;;;;;;;;16.50;99.90;;;;;;5133082;28;19952;-42
2023/06/01 12:10:52;;;;;;;;;;;16.50;99.90;;;;;;5133297;28;19961;-44
2023/06/01 12:13:18;;;;;;;;;;;16.60;99.90;;;;;;5134383;27;19916;-44
2023/06/01 12:15:44;;;;;;;;;;;16.60;99.90;;;;;;5137095;27;19915;-44
2023/06/01 12:18:10;;;;;;;;;;;16.70;99.90;;;;;;5137142;27;19908;-43
2023/06/01 12:20:36;;;;;;;;;;;16.80;99.90;;;;;;5136160;27;19959;-43
2023/06/01 12:23:20;;;;;;;;;;;16.90;99.90;;;;;;5136958;27;19911;-43
2023/06/01 12:25:56;;;;;;;;;;;16.80;99.90;;;;;;5136906;27;19907;-44
2023/06/01 12:28:22;;;;;;;;;;;16.80;99.90;;;;;;5136132;27;19908;-45
2023/06/01 12:30:48;;;;;;;;;;;16.80;99.90;;;;;;5136710;27;20048;-42
2023/06/01 12:33:35;;;;;;;;;;;16.90;99.90;;;;;;5135855;27;20342;-45
2023/06/01 12:36:05;;;;;;;;;;;16.90;99.90;;;;;;5136608;27;19912;-46
2023/06/01 12:38:37;;;;;;;;;;;16.90;99.90;;;;;;5136620;27;19916;-41
2023/06/01 12:41:11;;;;;;;;;;;16.90;99.90;;;;;;5135795;27;20281;-46
2023/06/01 12:43:37;;;;;;;;;;;16.90;99.90;;;;;;5136384;27;19980;-42
2023/06/01 12:46:06;;;;;;;;;;;17.10;99.90;;;;;;5136568;27;19907;-44
2023/06/01 12:48:32;;;;;;;;;;;17.10;99.90;;;;;;5135478;27;19929;-45
2023/06/01 12:50:58;;;;;;;;;;;17.10;99.90;;;;;;5136486;27;20327;-42
2023/06/01 12:53:23;;;;;;;;;;;17.20;99.90;;;;;;5136220;27;19916;-43
2023/06/01 12:55:49;;;;;;;;;;;17.30;99.90;;;;;;5135538;27;19908;-42
2023/06/01 12:58:14;;;;;;;;;;;17.40;99.90;;;;;;5136213;27;19914;-44
2023/06/01 13:00:40;;;;;;;;;;;17.40;99.90;;;;;;5136050;27;19951;-44
2023/06/01 13:03:07;;;;;;;;;;;17.40;99.90;;;;;;5135438;27;19915;-44
2023/06/01 13:05:32;;;;;;;;;;;17.40;99.90;;;;;;5136127;27;19911;-42
2023/06/01 13:07:59;;;;;;;;;;;17.40;99.90;;;;;;5135991;27;20006;-43
2023/06/01 13:10:25;;;;;;;;;;;17.40;99.90;;;;;;5135128;27;19952;-43
2023/06/01 13:12:51;;;;;;;;;;;17.30;98.70;;;;;;5135860;27;19916;-43
2023/06/01 13:15:16;;;;;;;;;;;17.20;99.70;;;;;;5135284;27;19968;-43
2023/06/01 13:17:42;;;;;;;;;;;17.20;99.90;;;;;;5135843;27;19912;-44
2023/06/01 13:20:10;;;;;;;;;;;17.20;99.90;;;;;;5135896;27;20381;-42
2023/06/01 13:22:36;;;;;;;;;;;17.10;99.90;;;;;;5134899;27;19967;-42
2023/06/01 13:25:01;;;;;;;;;;;17.00;99.90;;;;;;5134523;27;19911;-41
2023/06/01 13:27:27;;;;;;;;;;;17.00;99.90;;;;;;5135660;27;19911;-45
2023/06/01 13:29:52;;;;;;;;;;;16.90;99.90;;;;;;5134723;27;19915;-44
2023/06/01 13:32:18;;;;;;;;;;;16.90;99.90;;;;;;5135632;27;19907;-44
2023/06/01 13:34:43;;;;;;;;;;;16.90;99.90;;;;;;5135539;27;19912;-45
2023/06/01 13:37:09;;;;;;;;;;;16.80;99.90;;;;;;5134416;27;19925;-43
2023/06/01 13:39:34;;;;;;;;;;;16.80;99.90;;;;;;5135409;27;19908;-44
2023/06/01 13:42:00;;;;;;;;;;;16.80;99.90;;;;;;5135231;27;19907;-42
2023/06/01 13:44:26;;;;;;;;;;;16.70;99.90;;;;;;5134567;27;19939;-43
2023/06/01 13:46:51;;;;;;;;;;;16.70;99.90;;;;;;5135287;27;19943;-41
2023/06/01 13:49:16;;;;;;;;;;;16.50;99.90;;;;;;5135222;27;19911;-44
2023/06/01 13:51:42;;;;;;;;;;;16.50;99.90;;;;;;5134455;27;20358;-41
2023/06/01 13:54:08;;;;;;;;;;;16.40;99.90;;;;;;5135031;27;19919;-42
2023/06/01 13:56:33;;;;;;;;;;;16.30;99.90;;;;;;5135037;27;19994;-45
2023/06/01 13:58:59;;;;;;;;;;;16.30;99.90;;;;;;5134292;27;19908;-43
2023/06/01 14:01:24;;;;;;;;;;;16.30;99.90;;;;;;5135012;27;19968;-45
2023/06/01 14:03:50;;;;;;;;;;;16.30;99.90;;;;;;5134887;27;19907;-44
2023/06/01 14:06:16;;;;;;;;;;;16.20;99.90;;;;;;5134156;27;19908;-45
2023/06/01 14:08:41;;;;;;;;;;;16.20;99.90;;;;;;5134949;27;19918;-42
2023/06/01 14:11:07;;;;;;;;;;;16.10;99.90;;;;;;5134714;27;20421;-43
2023/06/01 14:13:32;;;;;;;;;;;16.10;99.90;;;;;;5133855;27;19916;-43